sensor_id;sensor_type;location;lat;lon;timestamp;temperature;humidity
12622;DHT22;6376;48.182;-1.644;2022-11-15T00:00:28;13.40;91.50
12622;DHT22;6376;48.182;-1.644;2022-11-15T00:02:54;13.40;91.40
12622;DHT22;6376;48.182;-1.644;2022-11-15T00:05:20;13.40;91.40
12622;DHT22;6376;48.182;-1.644;2022-11-15T00:07:46;13.40;91.50
12622;DHT22;6376;48.182;-1.644;2022-11-15T00:10:11;13.40;91.50
12622;DHT22;6376;48.182;-1.644;2022-11-15T00:12:37;13.40;91.50
12622;DHT22;6376;48.182;-1.644;2022-11-15T00:15:03;13.40;91.50
12622;DHT22;6376;48.182;-1.644;2022-11-15T00:17:29;13.40;91.50
12622;DHT22;6376;48.182;-1.644;2022-11-15T00:19:55;13.40;91.50
12622;DHT22;6376;48.182;-1.644;2022-11-15T00:22:21;13.40;91.40
12622;DHT22;6376;48.182;-1.644;2022-11-15T00:24:46;13.40;91.50
12622;DHT22;6376;48.182;-1.644;2022-11-15T00:27:12;13.40;91.40
12622;DHT22;6376;48.182;-1.644;2022-11-15T00:29:38;13.40;91.50
12622;DHT22;6376;48.182;-1.644;2022-11-15T00:32:09;13.40;91.50
12622;DHT22;6376;48.182;-1.644;2022-11-15T00:34:34;13.40;91.40
12622;DHT22;6376;48.182;-1.644;2022-11-15T00:37:00;13.40;91.40
12622;DHT22;6376;48.182;-1.644;2022-11-15T00:39:26;13.40;91.50
12622;DHT22;6376;48.182;-1.644;2022-11-15T00:41:51;13.40;91.50
12622;DHT22;6376;48.182;-1.644;2022-11-15T00:44:17;13.40;91.40
12622;DHT22;6376;48.182;-1.644;2022-11-15T00:46:42;13.40;91.50
12622;DHT22;6376;48.182;-1.644;2022-11-15T00:49:08;13.40;91.50
12622;DHT22;6376;48.182;-1.644;2022-11-15T00:51:34;13.40;91.50
12622;DHT22;6376;48.182;-1.644;2022-11-15T00:53:59;13.40;91.50
12622;DHT22;6376;48.182;-1.644;2022-11-15T00:56:25;13.40;91.50
12622;DHT22;6376;48.182;-1.644;2022-11-15T00:58:50;13.40;91.40
12622;DHT22;6376;48.182;-1.644;2022-11-15T01:01:16;13.40;91.50
12622;DHT22;6376;48.182;-1.644;2022-11-15T01:03:42;13.40;91.40
12622;DHT22;6376;48.182;-1.644;2022-11-15T01:06:08;13.40;91.40
12622;DHT22;6376;48.182;-1.644;2022-11-15T01:08:34;13.40;91.50
12622;DHT22;6376;48.182;-1.644;2022-11-15T01:11:05;13.40;91.40
12622;DHT22;6376;48.182;-1.644;2022-11-15T01:13:33;13.40;91.50
12622;DHT22;6376;48.182;-1.644;2022-11-15T01:16:04;13.40;91.40
12622;DHT22;6376;48.182;-1.644;2022-11-15T01:18:30;13.40;91.40
12622;DHT22;6376;48.182;-1.644;2022-11-15T01:20:56;13.40;91.40
12622;DHT22;6376;48.182;-1.644;2022-11-15T01:23:21;13.40;91.40
12622;DHT22;6376;48.182;-1.644;2022-11-15T01:25:47;13.40;91.50
12622;DHT22;6376;48.182;-1.644;2022-11-15T01:28:13;13.40;91.40
12622;DHT22;6376;48.182;-1.644;2022-11-15T01:30:38;13.40;91.40
12622;DHT22;6376;48.182;-1.644;2022-11-15T01:33:04;13.40;91.40
12622;DHT22;6376;48.182;-1.644;2022-11-15T01:35:29;13.40;91.40
12622;DHT22;6376;48.182;-1.644;2022-11-15T01:37:55;13.40;91.40
12622;DHT22;6376;48.182;-1.644;2022-11-15T01:40:21;13.40;91.40
12622;DHT22;6376;48.182;-1.644;2022-11-15T01:42:46;13.40;91.60
12622;DHT22;6376;48.182;-1.644;2022-11-15T01:45:15;13.40;91.40
12622;DHT22;6376;48.182;-1.644;2022-11-15T01:47:46;13.40;91.40
12622;DHT22;6376;48.182;-1.644;2022-11-15T01:50:21;13.40;91.50
12622;DHT22;6376;48.182;-1.644;2022-11-15T01:52:47;13.40;91.40
12622;DHT22;6376;48.182;-1.644;2022-11-15T01:55:21;13.40;91.40
12622;DHT22;6376;48.182;-1.644;2022-11-15T01:57:53;13.40;91.40
12622;DHT22;6376;48.182;-1.644;2022-11-15T02:00:20;13.40;91.40
12622;DHT22;6376;48.182;-1.644;2022-11-15T02:02:46;13.40;91.40
12622;DHT22;6376;48.182;-1.644;2022-11-15T02:05:12;13.40;91.70
12622;DHT22;6376;48.182;-1.644;2022-11-15T02:07:38;13.40;91.40
12622;DHT22;6376;48.182;-1.644;2022-11-15T02:10:17;13.40;91.30
12622;DHT22;6376;48.182;-1.644;2022-11-15T02:12:43;13.40;91.30
12622;DHT22;6376;48.182;-1.644;2022-11-15T02:15:10;13.40;91.30
12622;DHT22;6376;48.182;-1.644;2022-11-15T02:23:28;13.50;91.30
12622;DHT22;6376;48.182;-1.644;2022-11-15T02:31:58;13.40;91.30
12622;DHT22;6376;48.182;-1.644;2022-11-15T02:36:55;13.50;91.30
12622;DHT22;6376;48.182;-1.644;2022-11-15T02:40:09;13.50;91.30
12622;DHT22;6376;48.182;-1.644;2022-11-15T02:42:44;13.50;91.40
12622;DHT22;6376;48.182;-1.644;2022-11-15T02:45:37;13.50;91.30
12622;DHT22;6376;48.182;-1.644;2022-11-15T02:48:06;13.50;91.30
12622;DHT22;6376;48.182;-1.644;2022-11-15T02:50:32;13.50;91.30
12622;DHT22;6376;48.182;-1.644;2022-11-15T02:52:58;13.50;91.30
12622;DHT22;6376;48.182;-1.644;2022-11-15T02:55:38;13.50;91.30
12622;DHT22;6376;48.182;-1.644;2022-11-15T03:11:21;13.40;91.30
12622;DHT22;6376;48.182;-1.644;2022-11-15T03:18:49;13.50;91.30
12622;DHT22;6376;48.182;-1.644;2022-11-15T03:21:19;13.50;91.30
12622;DHT22;6376;48.182;-1.644;2022-11-15T03:23:47;13.50;91.30
12622;DHT22;6376;48.182;-1.644;2022-11-15T03:26:16;13.50;91.30
12622;DHT22;6376;48.182;-1.644;2022-11-15T03:28:52;13.50;91.30
12622;DHT22;6376;48.182;-1.644;2022-11-15T03:31:22;13.50;91.30
12622;DHT22;6376;48.182;-1.644;2022-11-15T03:34:11;13.50;91.30
12622;DHT22;6376;48.182;-1.644;2022-11-15T03:36:38;13.50;91.30
12622;DHT22;6376;48.182;-1.644;2022-11-15T03:39:06;13.50;91.30
12622;DHT22;6376;48.182;-1.644;2022-11-15T03:41:49;13.50;91.30
12622;DHT22;6376;48.182;-1.644;2022-11-15T03:44:34;13.50;91.30
12622;DHT22;6376;48.182;-1.644;2022-11-15T03:47:20;13.50;91.30
12622;DHT22;6376;48.182;-1.644;2022-11-15T03:49:52;13.50;91.30
12622;DHT22;6376;48.182;-1.644;2022-11-15T03:52:20;13.50;91.30
12622;DHT22;6376;48.182;-1.644;2022-11-15T03:54:54;13.50;91.30
12622;DHT22;6376;48.182;-1.644;2022-11-15T03:57:21;13.50;91.30
12622;DHT22;6376;48.182;-1.644;2022-11-15T03:59:46;13.50;91.30
12622;DHT22;6376;48.182;-1.644;2022-11-15T04:02:12;13.50;91.30
12622;DHT22;6376;48.182;-1.644;2022-11-15T04:04:38;13.50;91.30
12622;DHT22;6376;48.182;-1.644;2022-11-15T04:07:04;13.50;91.30
12622;DHT22;6376;48.182;-1.644;2022-11-15T04:09:30;13.50;91.30
12622;DHT22;6376;48.182;-1.644;2022-11-15T04:11:56;13.50;91.30
12622;DHT22;6376;48.182;-1.644;2022-11-15T04:14:22;13.50;91.30
12622;DHT22;6376;48.182;-1.644;2022-11-15T04:16:47;13.50;91.40
12622;DHT22;6376;48.182;-1.644;2022-11-15T04:19:13;13.50;91.30
12622;DHT22;6376;48.182;-1.644;2022-11-15T04:21:57;13.50;91.30
12622;DHT22;6376;48.182;-1.644;2022-11-15T04:24:41;13.50;91.30
12622;DHT22;6376;48.182;-1.644;2022-11-15T04:27:07;13.50;91.30
12622;DHT22;6376;48.182;-1.644;2022-11-15T04:29:32;13.50;91.30
12622;DHT22;6376;48.182;-1.644;2022-11-15T04:32:02;13.50;91.30
12622;DHT22;6376;48.182;-1.644;2022-11-15T04:34:28;13.50;91.30
12622;DHT22;6376;48.182;-1.644;2022-11-15T04:36:54;13.50;91.30
12622;DHT22;6376;48.182;-1.644;2022-11-15T04:39:38;13.50;91.30
12622;DHT22;6376;48.182;-1.644;2022-11-15T04:42:04;13.50;91.30
12622;DHT22;6376;48.182;-1.644;2022-11-15T04:44:29;13.50;91.30
12622;DHT22;6376;48.182;-1.644;2022-11-15T04:46:56;13.50;91.30
12622;DHT22;6376;48.182;-1.644;2022-11-15T04:49:21;13.50;91.30
12622;DHT22;6376;48.182;-1.644;2022-11-15T04:51:47;13.50;91.40
12622;DHT22;6376;48.182;-1.644;2022-11-15T04:54:13;13.50;91.40
12622;DHT22;6376;48.182;-1.644;2022-11-15T04:56:39;13.50;91.50
12622;DHT22;6376;48.182;-1.644;2022-11-15T04:59:04;13.50;91.50
12622;DHT22;6376;48.182;-1.644;2022-11-15T05:01:30;13.60;91.50
12622;DHT22;6376;48.182;-1.644;2022-11-15T05:03:55;13.50;91.40
12622;DHT22;6376;48.182;-1.644;2022-11-15T05:06:40;13.50;91.50
12622;DHT22;6376;48.182;-1.644;2022-11-15T05:09:05;13.50;91.40
12622;DHT22;6376;48.182;-1.644;2022-11-15T05:11:31;13.50;91.50
12622;DHT22;6376;48.182;-1.644;2022-11-15T05:13:57;13.50;91.50
12622;DHT22;6376;48.182;-1.644;2022-11-15T05:16:22;13.50;91.50
12622;DHT22;6376;48.182;-1.644;2022-11-15T05:18:54;13.50;91.50
12622;DHT22;6376;48.182;-1.644;2022-11-15T05:21:20;13.50;91.50
12622;DHT22;6376;48.182;-1.644;2022-11-15T05:23:46;13.50;91.50
12622;DHT22;6376;48.182;-1.644;2022-11-15T05:26:12;13.50;91.60
12622;DHT22;6376;48.182;-1.644;2022-11-15T05:28:38;13.50;91.60
12622;DHT22;6376;48.182;-1.644;2022-11-15T05:31:08;13.50;91.60
12622;DHT22;6376;48.182;-1.644;2022-11-15T05:33:36;13.50;91.60
12622;DHT22;6376;48.182;-1.644;2022-11-15T05:36:07;13.50;91.70
12622;DHT22;6376;48.182;-1.644;2022-11-15T05:38:35;13.50;91.70
12622;DHT22;6376;48.182;-1.644;2022-11-15T05:41:01;13.50;91.70
12622;DHT22;6376;48.182;-1.644;2022-11-15T05:43:29;13.50;91.60
12622;DHT22;6376;48.182;-1.644;2022-11-15T05:45:57;13.50;91.60
12622;DHT22;6376;48.182;-1.644;2022-11-15T05:48:23;13.50;91.60
12622;DHT22;6376;48.182;-1.644;2022-11-15T05:50:48;13.50;91.60
12622;DHT22;6376;48.182;-1.644;2022-11-15T05:53:16;13.50;91.60
12622;DHT22;6376;48.182;-1.644;2022-11-15T05:55:43;13.50;91.70
12622;DHT22;6376;48.182;-1.644;2022-11-15T05:58:09;13.50;91.70
12622;DHT22;6376;48.182;-1.644;2022-11-15T06:00:35;13.50;91.70
12622;DHT22;6376;48.182;-1.644;2022-11-15T06:03:00;13.50;91.70
12622;DHT22;6376;48.182;-1.644;2022-11-15T06:05:26;13.50;91.70
12622;DHT22;6376;48.182;-1.644;2022-11-15T06:07:51;13.50;91.70
12622;DHT22;6376;48.182;-1.644;2022-11-15T06:10:17;13.50;91.70
12622;DHT22;6376;48.182;-1.644;2022-11-15T06:12:43;13.50;91.70
12622;DHT22;6376;48.182;-1.644;2022-11-15T06:15:08;13.50;91.80
12622;DHT22;6376;48.182;-1.644;2022-11-15T06:17:34;13.50;91.90
12622;DHT22;6376;48.182;-1.644;2022-11-15T06:20:00;13.50;91.80
12622;DHT22;6376;48.182;-1.644;2022-11-15T06:22:25;13.50;91.90
12622;DHT22;6376;48.182;-1.644;2022-11-15T06:24:51;13.50;91.90
12622;DHT22;6376;48.182;-1.644;2022-11-15T06:27:16;13.50;91.80
12622;DHT22;6376;48.182;-1.644;2022-11-15T06:29:42;13.50;91.90
12622;DHT22;6376;48.182;-1.644;2022-11-15T06:32:08;13.50;92.20
12622;DHT22;6376;48.182;-1.644;2022-11-15T06:34:33;13.50;92.30
12622;DHT22;6376;48.182;-1.644;2022-11-15T06:37:01;13.50;91.90
12622;DHT22;6376;48.182;-1.644;2022-11-15T06:39:27;13.50;91.90
12622;DHT22;6376;48.182;-1.644;2022-11-15T06:41:53;13.50;91.90
12622;DHT22;6376;48.182;-1.644;2022-11-15T06:44:18;13.50;92.10
12622;DHT22;6376;48.182;-1.644;2022-11-15T06:46:44;13.50;92.00
12622;DHT22;6376;48.182;-1.644;2022-11-15T06:49:09;13.50;92.20
12622;DHT22;6376;48.182;-1.644;2022-11-15T06:51:35;13.50;92.00
12622;DHT22;6376;48.182;-1.644;2022-11-15T06:54:01;13.50;92.00
12622;DHT22;6376;48.182;-1.644;2022-11-15T06:56:26;13.50;92.10
12622;DHT22;6376;48.182;-1.644;2022-11-15T06:58:52;13.50;92.30
12622;DHT22;6376;48.182;-1.644;2022-11-15T07:01:18;13.50;92.30
12622;DHT22;6376;48.182;-1.644;2022-11-15T07:03:43;13.50;92.30
12622;DHT22;6376;48.182;-1.644;2022-11-15T07:06:09;13.50;92.20
12622;DHT22;6376;48.182;-1.644;2022-11-15T07:08:35;13.50;92.20
12622;DHT22;6376;48.182;-1.644;2022-11-15T07:11:03;13.50;92.10
12622;DHT22;6376;48.182;-1.644;2022-11-15T07:13:30;13.50;92.10
12622;DHT22;6376;48.182;-1.644;2022-11-15T07:16:04;13.50;92.00
12622;DHT22;6376;48.182;-1.644;2022-11-15T07:18:30;13.50;92.20
12622;DHT22;6376;48.182;-1.644;2022-11-15T07:20:59;13.50;92.10
12622;DHT22;6376;48.182;-1.644;2022-11-15T07:23:25;13.50;92.20
12622;DHT22;6376;48.182;-1.644;2022-11-15T07:25:51;13.50;92.20
12622;DHT22;6376;48.182;-1.644;2022-11-15T07:28:16;13.50;92.30
12622;DHT22;6376;48.182;-1.644;2022-11-15T07:30:42;13.50;92.40
12622;DHT22;6376;48.182;-1.644;2022-11-15T07:33:07;13.50;92.30
12622;DHT22;6376;48.182;-1.644;2022-11-15T07:35:33;13.50;92.20
12622;DHT22;6376;48.182;-1.644;2022-11-15T07:38:00;13.50;92.20
12622;DHT22;6376;48.182;-1.644;2022-11-15T07:40:28;13.50;92.20
12622;DHT22;6376;48.182;-1.644;2022-11-15T07:43:07;13.50;92.20
12622;DHT22;6376;48.182;-1.644;2022-11-15T07:45:34;13.50;92.30
12622;DHT22;6376;48.182;-1.644;2022-11-15T07:48:05;13.50;92.40
12622;DHT22;6376;48.182;-1.644;2022-11-15T07:50:31;13.50;92.20
12622;DHT22;6376;48.182;-1.644;2022-11-15T07:52:58;13.50;92.20
12622;DHT22;6376;48.182;-1.644;2022-11-15T07:55:25;13.50;92.50
12622;DHT22;6376;48.182;-1.644;2022-11-15T07:57:51;13.50;92.40
12622;DHT22;6376;48.182;-1.644;2022-11-15T08:00:17;13.50;92.40
12622;DHT22;6376;48.182;-1.644;2022-11-15T08:02:43;13.50;92.50
12622;DHT22;6376;48.182;-1.644;2022-11-15T08:05:08;13.50;92.30
12622;DHT22;6376;48.182;-1.644;2022-11-15T08:07:34;13.50;92.30
12622;DHT22;6376;48.182;-1.644;2022-11-15T08:10:00;13.50;92.40
12622;DHT22;6376;48.182;-1.644;2022-11-15T08:12:27;13.50;92.40
12622;DHT22;6376;48.182;-1.644;2022-11-15T08:14:55;13.50;92.50
12622;DHT22;6376;48.182;-1.644;2022-11-15T08:17:22;13.50;92.50
12622;DHT22;6376;48.182;-1.644;2022-11-15T08:19:48;13.50;92.40
12622;DHT22;6376;48.182;-1.644;2022-11-15T08:22:13;13.50;92.40
12622;DHT22;6376;48.182;-1.644;2022-11-15T08:24:39;13.50;92.60
12622;DHT22;6376;48.182;-1.644;2022-11-15T08:27:05;13.50;92.60
12622;DHT22;6376;48.182;-1.644;2022-11-15T08:29:44;13.50;92.60
12622;DHT22;6376;48.182;-1.644;2022-11-15T08:32:10;13.50;92.60
12622;DHT22;6376;48.182;-1.644;2022-11-15T08:34:37;13.50;92.40
12622;DHT22;6376;48.182;-1.644;2022-11-15T08:37:03;13.50;92.40
12622;DHT22;6376;48.182;-1.644;2022-11-15T08:39:28;13.60;92.50
12622;DHT22;6376;48.182;-1.644;2022-11-15T08:41:54;13.60;92.40
12622;DHT22;6376;48.182;-1.644;2022-11-15T08:44:19;13.60;92.60
12622;DHT22;6376;48.182;-1.644;2022-11-15T08:46:46;13.50;92.60
12622;DHT22;6376;48.182;-1.644;2022-11-15T08:49:11;13.50;92.50
12622;DHT22;6376;48.182;-1.644;2022-11-15T08:51:37;13.50;92.60
12622;DHT22;6376;48.182;-1.644;2022-11-15T08:54:02;13.60;92.60
12622;DHT22;6376;48.182;-1.644;2022-11-15T08:56:28;13.50;92.50
12622;DHT22;6376;48.182;-1.644;2022-11-15T08:58:54;13.50;92.60
12622;DHT22;6376;48.182;-1.644;2022-11-15T09:01:20;13.60;92.70
12622;DHT22;6376;48.182;-1.644;2022-11-15T09:03:46;13.50;92.70
12622;DHT22;6376;48.182;-1.644;2022-11-15T09:06:12;13.60;92.60
12622;DHT22;6376;48.182;-1.644;2022-11-15T09:08:38;13.60;92.70
12622;DHT22;6376;48.182;-1.644;2022-11-15T09:11:08;13.60;92.60
12622;DHT22;6376;48.182;-1.644;2022-11-15T09:13:34;13.60;92.80
12622;DHT22;6376;48.182;-1.644;2022-11-15T09:16:01;13.60;92.70
12622;DHT22;6376;48.182;-1.644;2022-11-15T09:18:26;13.60;92.70
12622;DHT22;6376;48.182;-1.644;2022-11-15T09:20:58;13.60;92.60
12622;DHT22;6376;48.182;-1.644;2022-11-15T09:23:25;13.60;92.60
12622;DHT22;6376;48.182;-1.644;2022-11-15T09:25:51;13.60;92.80
12622;DHT22;6376;48.182;-1.644;2022-11-15T09:28:17;13.60;92.80
12622;DHT22;6376;48.182;-1.644;2022-11-15T09:30:43;13.60;92.80
12622;DHT22;6376;48.182;-1.644;2022-11-15T09:33:10;13.60;92.80
12622;DHT22;6376;48.182;-1.644;2022-11-15T09:35:36;13.60;92.90
12622;DHT22;6376;48.182;-1.644;2022-11-15T09:38:03;13.70;92.80
12622;DHT22;6376;48.182;-1.644;2022-11-15T09:40:30;13.70;92.80
12622;DHT22;6376;48.182;-1.644;2022-11-15T09:48:29;13.70;92.70
12622;DHT22;6376;48.182;-1.644;2022-11-15T09:51:03;13.70;92.60
12622;DHT22;6376;48.182;-1.644;2022-11-15T09:53:37;13.70;92.80
12622;DHT22;6376;48.182;-1.644;2022-11-15T09:56:16;13.70;92.60
12622;DHT22;6376;48.182;-1.644;2022-11-15T09:59:04;13.70;92.60
12622;DHT22;6376;48.182;-1.644;2022-11-15T10:01:56;13.70;93.00
12622;DHT22;6376;48.182;-1.644;2022-11-15T10:04:27;13.70;92.80
12622;DHT22;6376;48.182;-1.644;2022-11-15T10:07:04;13.70;92.60
12622;DHT22;6376;48.182;-1.644;2022-11-15T10:10:02;13.70;92.60
12622;DHT22;6376;48.182;-1.644;2022-11-15T10:12:30;13.70;92.60
12622;DHT22;6376;48.182;-1.644;2022-11-15T10:15:13;13.70;92.60
12622;DHT22;6376;48.182;-1.644;2022-11-15T10:22:56;13.70;92.60
12622;DHT22;6376;48.182;-1.644;2022-11-15T10:25:28;13.70;92.60
12622;DHT22;6376;48.182;-1.644;2022-11-15T10:30:43;13.70;92.50
12622;DHT22;6376;48.182;-1.644;2022-11-15T10:33:39;13.70;92.50
12622;DHT22;6376;48.182;-1.644;2022-11-15T10:36:17;13.70;92.60
12622;DHT22;6376;48.182;-1.644;2022-11-15T10:46:38;13.80;92.80
12622;DHT22;6376;48.182;-1.644;2022-11-15T10:54:11;13.80;92.80
12622;DHT22;6376;48.182;-1.644;2022-11-15T10:56:37;13.80;92.60
12622;DHT22;6376;48.182;-1.644;2022-11-15T10:59:04;13.80;92.80
12622;DHT22;6376;48.182;-1.644;2022-11-15T11:01:30;13.80;92.60
12622;DHT22;6376;48.182;-1.644;2022-11-15T11:03:59;13.90;92.40
12622;DHT22;6376;48.182;-1.644;2022-11-15T11:06:25;13.90;92.40
12622;DHT22;6376;48.182;-1.644;2022-11-15T11:09:00;14.00;92.50
12622;DHT22;6376;48.182;-1.644;2022-11-15T11:11:50;14.00;92.10
12622;DHT22;6376;48.182;-1.644;2022-11-15T11:14:30;14.10;91.90
12622;DHT22;6376;48.182;-1.644;2022-11-15T11:17:27;14.10;91.80
12622;DHT22;6376;48.182;-1.644;2022-11-15T11:23:06;14.10;91.80
12622;DHT22;6376;48.182;-1.644;2022-11-15T11:37:24;14.10;92.10
12622;DHT22;6376;48.182;-1.644;2022-11-15T11:40:33;14.10;91.80
12622;DHT22;6376;48.182;-1.644;2022-11-15T11:43:25;14.10;91.70
12622;DHT22;6376;48.182;-1.644;2022-11-15T11:48:48;14.00;91.90
12622;DHT22;6376;48.182;-1.644;2022-11-15T11:51:23;14.00;92.00
12622;DHT22;6376;48.182;-1.644;2022-11-15T11:53:56;14.10;91.90
12622;DHT22;6376;48.182;-1.644;2022-11-15T11:56:32;14.00;91.80
12622;DHT22;6376;48.182;-1.644;2022-11-15T11:59:12;14.00;91.80
12622;DHT22;6376;48.182;-1.644;2022-11-15T12:01:43;14.10;92.00
12622;DHT22;6376;48.182;-1.644;2022-11-15T12:04:24;14.00;92.00
12622;DHT22;6376;48.182;-1.644;2022-11-15T12:07:02;14.10;92.00
12622;DHT22;6376;48.182;-1.644;2022-11-15T12:12:27;14.10;91.80
12622;DHT22;6376;48.182;-1.644;2022-11-15T12:15:03;14.10;91.80
12622;DHT22;6376;48.182;-1.644;2022-11-15T12:17:31;14.10;91.90
12622;DHT22;6376;48.182;-1.644;2022-11-15T12:20:03;14.10;91.90
12622;DHT22;6376;48.182;-1.644;2022-11-15T12:22:42;14.10;92.00
12622;DHT22;6376;48.182;-1.644;2022-11-15T12:30:19;14.10;91.90
12622;DHT22;6376;48.182;-1.644;2022-11-15T12:32:58;14.10;91.70
12622;DHT22;6376;48.182;-1.644;2022-11-15T12:35:26;14.10;91.90
12622;DHT22;6376;48.182;-1.644;2022-11-15T12:37:53;14.10;91.90
12622;DHT22;6376;48.182;-1.644;2022-11-15T12:40:30;14.10;91.80
12622;DHT22;6376;48.182;-1.644;2022-11-15T12:42:58;14.10;91.90
12622;DHT22;6376;48.182;-1.644;2022-11-15T12:45:38;14.10;91.80
12622;DHT22;6376;48.182;-1.644;2022-11-15T12:51:08;14.10;91.70
12622;DHT22;6376;48.182;-1.644;2022-11-15T12:53:34;14.10;91.80
12622;DHT22;6376;48.182;-1.644;2022-11-15T12:58:44;14.10;91.70
12622;DHT22;6376;48.182;-1.644;2022-11-15T13:07:05;14.20;91.80
12622;DHT22;6376;48.182;-1.644;2022-11-15T13:12:11;14.20;91.80
12622;DHT22;6376;48.182;-1.644;2022-11-15T13:15:00;14.20;91.80
12622;DHT22;6376;48.182;-1.644;2022-11-15T13:17:32;14.20;91.70
12622;DHT22;6376;48.182;-1.644;2022-11-15T13:22:27;14.20;91.60
12622;DHT22;6376;48.182;-1.644;2022-11-15T13:31:01;14.20;91.60
12622;DHT22;6376;48.182;-1.644;2022-11-15T13:33:35;14.20;91.50
12622;DHT22;6376;48.182;-1.644;2022-11-15T13:36:07;14.20;91.60
12622;DHT22;6376;48.182;-1.644;2022-11-15T13:38:39;14.20;91.50
12622;DHT22;6376;48.182;-1.644;2022-11-15T13:41:20;14.20;91.50
12622;DHT22;6376;48.182;-1.644;2022-11-15T13:43:47;14.20;91.50
12622;DHT22;6376;48.182;-1.644;2022-11-15T13:46:20;14.20;91.50
12622;DHT22;6376;48.182;-1.644;2022-11-15T13:48:55;14.20;91.90
12622;DHT22;6376;48.182;-1.644;2022-11-15T13:54:14;14.20;91.50
12622;DHT22;6376;48.182;-1.644;2022-11-15T13:56:52;14.20;91.50
12622;DHT22;6376;48.182;-1.644;2022-11-15T13:59:26;14.20;91.50
12622;DHT22;6376;48.182;-1.644;2022-11-15T14:01:54;14.20;91.60
12622;DHT22;6376;48.182;-1.644;2022-11-15T14:04:23;14.20;91.50
12622;DHT22;6376;48.182;-1.644;2022-11-15T14:06:54;14.20;91.50
12622;DHT22;6376;48.182;-1.644;2022-11-15T14:09:38;14.20;91.50
12622;DHT22;6376;48.182;-1.644;2022-11-15T14:14:48;14.20;91.50
12622;DHT22;6376;48.182;-1.644;2022-11-15T14:17:40;14.20;91.50
12622;DHT22;6376;48.182;-1.644;2022-11-15T14:20:38;14.20;91.50
12622;DHT22;6376;48.182;-1.644;2022-11-15T14:23:18;14.20;91.50
12622;DHT22;6376;48.182;-1.644;2022-11-15T14:25:53;14.20;91.60
12622;DHT22;6376;48.182;-1.644;2022-11-15T14:30:48;14.20;91.60
12622;DHT22;6376;48.182;-1.644;2022-11-15T14:35:57;14.10;91.60
12622;DHT22;6376;48.182;-1.644;2022-11-15T14:38:24;14.10;91.60
12622;DHT22;6376;48.182;-1.644;2022-11-15T14:40:50;14.10;91.60
12622;DHT22;6376;48.182;-1.644;2022-11-15T14:43:16;14.10;91.60
12622;DHT22;6376;48.182;-1.644;2022-11-15T14:45:42;14.10;91.60
12622;DHT22;6376;48.182;-1.644;2022-11-15T14:48:09;14.10;91.50
12622;DHT22;6376;48.182;-1.644;2022-11-15T14:50:35;14.10;91.50
12622;DHT22;6376;48.182;-1.644;2022-11-15T14:53:01;14.10;91.50
12622;DHT22;6376;48.182;-1.644;2022-11-15T14:55:29;14.10;91.60
12622;DHT22;6376;48.182;-1.644;2022-11-15T14:57:58;14.10;91.60
12622;DHT22;6376;48.182;-1.644;2022-11-15T15:00:24;14.10;91.60
12622;DHT22;6376;48.182;-1.644;2022-11-15T15:02:52;14.10;91.60
12622;DHT22;6376;48.182;-1.644;2022-11-15T15:07:50;14.10;91.60
12622;DHT22;6376;48.182;-1.644;2022-11-15T15:10:18;14.10;91.50
12622;DHT22;6376;48.182;-1.644;2022-11-15T15:12:44;14.10;91.60
12622;DHT22;6376;48.182;-1.644;2022-11-15T15:15:21;14.10;91.50
12622;DHT22;6376;48.182;-1.644;2022-11-15T15:17:47;14.10;91.50
12622;DHT22;6376;48.182;-1.644;2022-11-15T15:20:13;14.10;91.50
12622;DHT22;6376;48.182;-1.644;2022-11-15T15:22:39;14.10;91.50
12622;DHT22;6376;48.182;-1.644;2022-11-15T15:27:52;14.10;91.50
12622;DHT22;6376;48.182;-1.644;2022-11-15T15:30:18;14.10;91.50
12622;DHT22;6376;48.182;-1.644;2022-11-15T15:32:44;14.10;91.50
12622;DHT22;6376;48.182;-1.644;2022-11-15T15:35:12;14.10;91.50
12622;DHT22;6376;48.182;-1.644;2022-11-15T15:37:38;14.10;91.50
12622;DHT22;6376;48.182;-1.644;2022-11-15T15:40:14;14.10;91.60
12622;DHT22;6376;48.182;-1.644;2022-11-15T15:42:40;14.00;91.60
12622;DHT22;6376;48.182;-1.644;2022-11-15T15:45:07;14.10;91.60
12622;DHT22;6376;48.182;-1.644;2022-11-15T15:47:33;14.10;91.60
12622;DHT22;6376;48.182;-1.644;2022-11-15T15:49:59;14.10;91.60
12622;DHT22;6376;48.182;-1.644;2022-11-15T15:52:24;14.00;91.60
12622;DHT22;6376;48.182;-1.644;2022-11-15T15:54:50;14.00;91.60
12622;DHT22;6376;48.182;-1.644;2022-11-15T15:57:16;14.00;91.60
12622;DHT22;6376;48.182;-1.644;2022-11-15T15:59:42;14.00;91.60
12622;DHT22;6376;48.182;-1.644;2022-11-15T16:02:14;14.00;91.60
12622;DHT22;6376;48.182;-1.644;2022-11-15T16:04:40;14.00;91.60
12622;DHT22;6376;48.182;-1.644;2022-11-15T16:07:15;14.00;91.70
12622;DHT22;6376;48.182;-1.644;2022-11-15T16:09:41;14.00;91.60
12622;DHT22;6376;48.182;-1.644;2022-11-15T16:12:26;14.00;91.60
12622;DHT22;6376;48.182;-1.644;2022-11-15T16:14:52;14.00;91.70
12622;DHT22;6376;48.182;-1.644;2022-11-15T16:17:20;14.00;91.70
12622;DHT22;6376;48.182;-1.644;2022-11-15T16:19:46;14.00;91.70
12622;DHT22;6376;48.182;-1.644;2022-11-15T16:22:12;14.00;91.70
12622;DHT22;6376;48.182;-1.644;2022-11-15T16:24:38;13.90;91.70
12622;DHT22;6376;48.182;-1.644;2022-11-15T16:27:03;13.90;91.70
12622;DHT22;6376;48.182;-1.644;2022-11-15T16:29:29;13.90;91.70
12622;DHT22;6376;48.182;-1.644;2022-11-15T16:31:55;13.90;91.70
12622;DHT22;6376;48.182;-1.644;2022-11-15T16:34:21;13.90;91.70
12622;DHT22;6376;48.182;-1.644;2022-11-15T16:36:47;13.90;91.70
12622;DHT22;6376;48.182;-1.644;2022-11-15T16:39:13;13.90;91.70
12622;DHT22;6376;48.182;-1.644;2022-11-15T16:41:40;13.90;91.80
12622;DHT22;6376;48.182;-1.644;2022-11-15T16:44:08;13.90;91.80
12622;DHT22;6376;48.182;-1.644;2022-11-15T16:46:34;13.90;91.80
12622;DHT22;6376;48.182;-1.644;2022-11-15T16:48:59;13.90;91.80
12622;DHT22;6376;48.182;-1.644;2022-11-15T16:51:25;13.90;91.80
12622;DHT22;6376;48.182;-1.644;2022-11-15T16:53:51;13.80;91.70
12622;DHT22;6376;48.182;-1.644;2022-11-15T16:56:37;13.80;91.80
12622;DHT22;6376;48.182;-1.644;2022-11-15T16:59:03;13.80;91.80
12622;DHT22;6376;48.182;-1.644;2022-11-15T17:01:34;13.80;91.80
12622;DHT22;6376;48.182;-1.644;2022-11-15T17:04:01;13.80;91.80
12622;DHT22;6376;48.182;-1.644;2022-11-15T17:06:40;13.80;91.80
12622;DHT22;6376;48.182;-1.644;2022-11-15T17:09:10;13.80;91.80
12622;DHT22;6376;48.182;-1.644;2022-11-15T17:11:37;13.80;91.90
12622;DHT22;6376;48.182;-1.644;2022-11-15T17:14:02;13.80;91.90
12622;DHT22;6376;48.182;-1.644;2022-11-15T17:16:28;13.80;91.90
12622;DHT22;6376;48.182;-1.644;2022-11-15T17:18:53;13.80;91.90
12622;DHT22;6376;48.182;-1.644;2022-11-15T17:21:20;13.80;91.90
12622;DHT22;6376;48.182;-1.644;2022-11-15T17:23:47;13.80;91.90
12622;DHT22;6376;48.182;-1.644;2022-11-15T17:26:14;13.80;91.90
12622;DHT22;6376;48.182;-1.644;2022-11-15T17:28:40;13.80;91.90
12622;DHT22;6376;48.182;-1.644;2022-11-15T17:31:07;13.80;92.00
12622;DHT22;6376;48.182;-1.644;2022-11-15T17:33:34;13.80;92.00
12622;DHT22;6376;48.182;-1.644;2022-11-15T17:36:02;13.70;91.90
12622;DHT22;6376;48.182;-1.644;2022-11-15T17:38:29;13.70;91.90
12622;DHT22;6376;48.182;-1.644;2022-11-15T17:43:26;13.70;91.90
12622;DHT22;6376;48.182;-1.644;2022-11-15T17:45:52;13.70;91.90
12622;DHT22;6376;48.182;-1.644;2022-11-15T17:48:18;13.70;92.00